KWJF/WJF METAR and TAF weather

Enter ICAO airport designator
Station Type Date Time Source
KWJF METAR 2020/07/13 14:56 UTC NOAA

KWJF 131456Z 26016KT 10SM CLR 29/04 A2992 RMK AO2 SLP104 T02890044 51008


Station Type Date Time Source
KWJF Decoded METAR 2020/07/13 14:56 UTC NOAA

LANCASTER FOX AIRFIELD, CA, United States (KWJF) 34-44N 118-13W
Jul 13, 2020 - 10:56 AM EDT / 2020.07.13 1456 UTC
Wind: from the W (260 degrees) at 18 MPH (16 KT):0
Visibility: 10 mile(s):0
Sky conditions: clear
Temperature: 84.0 F (28.9 C)
Dew Point: 39.9 F (4.4 C)
Relative Humidity: 20%
Pressure (altimeter): 29.92 in. Hg (1013 hPa)
Pressure tendency: 0.02 inches (0.8 hPa) higher than three hours ago
ob: KWJF 131456Z 26016KT 10SM CLR 29/04 A2992 RMK AO2 SLP104 T02890044 51008
cycle: 15

Station Type Date Time Source
KWJF TAF 2020/07/13 12:39 UTC NOAA

TAF KWJF 131137Z 1312/1412 24012KT P6SM SKC
FM131800 24018G25KT P6SM SKC
FM132200 23022G32KT P6SM SKC
FM140300 24020KT P6SM SKC
FM140600 24015KT P6SM SKC

Example: see airport list